Terminal Aerodrome Forecast
Issued by NWS

Home | Current Version | Previous Version | Text Only | Print | Product List | Glossary On
Versions: 1 2 3 4 5 6 7 8 9 10 11 12 13 14
000
FTUS44 KLIX 181700
TAFMSY
TAF
KMSY 181721Z 1818/1918 09006KT P6SM SCT030 OVC250
     FM182300 14004KT P6SM VCTS BKN030CB
     FM190800 VRB03KT P6SM BKN090
     FM191200 08005KT P6SM SCT090=

USA.gov is the U.S. government's official web portal to all federal, state and local government web resources and services.